Estación Meteorológica Peña el Pijo (Robertgarden) [ 02/02/23 21:49:50 CET ]

Fecha Hora Presion(HPa) Temp (°C) Humedad % Rocio (°C) Viento ( m/s) Direccion Lluvia 1Hora(mm) Lluvia 24H(mm) LLuvia Total(mm)
2012-Oct-15 01:01:13 1002.000 11.9 80 8.6         178.19
2012-Oct-15 02:01:14 1001.800 11.6 82 8.6         178.19
2012-Oct-15 03:04:20 1001.500 10.7 83 7.9         178.19
2012-Oct-15 04:01:14 1001.700 9.5 85 7.1         178.19
2012-Oct-15 05:01:12 1001.800 8.2 86 6.0         178.19
2012-Oct-15 06:01:15 1002.300 7.3 88 5.5         178.19
2012-Oct-15 07:01:17 1002.900 6.8 89 5.1         178.19
2012-Oct-15 08:01:18 1003.200 7.1 90 5.6         178.19
2012-Oct-15 09:01:16 1003.700 7.2 91 5.8         178.19
2012-Oct-15 10:01:17 1004.400 10.9 86 8.6         178.19
2012-Oct-15 11:01:17 1004.800 13.1 68 7.3         178.19
2012-Oct-15 12:01:15 1005.000 13.7 57 5.3         178.19
2012-Oct-15 13:01:17 1005.400 15.8 46 4.1         178.19
2012-Oct-15 14:01:14 1005.300 17.9 35 2.1         178.19
2012-Oct-15 15:01:14 1005.000 19.3 32 2.1         178.19
2012-Oct-15 16:01:14 1005.400 20.5 31 2.8         178.19
2012-Oct-15 17:01:11 1005.900 19.3 31 1.7         178.19
2012-Oct-15 18:01:13 1006.200 16.8 35 1.1         178.19
2012-Oct-15 19:01:17 1006.900 13.6 43 1.2         178.19
2012-Oct-15 20:01:12 1007.900 10.8 55 2.1         178.19
2012-Oct-15 21:01:17 1008.600 8.4 65 2.2         178.19
2012-Oct-15 22:01:12 1009.600 7.2 71 2.3         178.19
2012-Oct-15 23:01:13 1010.000 6.1 76 2.2         178.19

Temperatura Máxima:20°    Temperatura Mínima:
Presión Máxima:1010.000 Hpa    Presión Mínima:1001.500 Hpa


Volver